Disclaimer

Please do not use the information listed here in-flight or in-navigation, as they are not provided to us by the airports but are provided by volunteers, so they might be outdated.

Search


Regions


Airport information page

Radio informations:
Tower (TWR) - 121.25 MHz
OPS - 138.0 MHz
PRECISION - 123.3 MHz
Approach (APP) - 127.65 MHz

Airport informations:
Latitude: 50° 00' 48.31" N
Longitude: 015° 44' 19.13" E
Elevation: 741 feet - 226 meters
Operating hours: Remarks
Operating agency: Military-civil joint use airport
Timezone: UTC+1(+2DT)
Fuel: N/A

Runway information:
09/27 - 8203 x 246 feet< - >2500 x 75 meters

Recent METARs:
LKPD 172000Z 04004KT CAVOK 01/M06 Q1033 NOSIG RMK BLACK
LKPD 172100Z 04003KT CAVOK 00/M06 Q1033
LKPD 172100Z 04003KT CAVOK 00/M06 Q1033 RMK BLACK

Airport on the map: